sensor_id;sensor_type;location;lat;lon;timestamp;temperature;humidity
4376;DHT22;2202;50.866;12.750;2023-12-20T00:01:07;3.70;99.10
4376;DHT22;2202;50.866;12.750;2023-12-20T00:03:34;3.70;99.30
4376;DHT22;2202;50.866;12.750;2023-12-20T00:06:01;3.70;99.40
4376;DHT22;2202;50.866;12.750;2023-12-20T00:08:29;3.70;99.20
4376;DHT22;2202;50.866;12.750;2023-12-20T00:10:56;3.70;99.30
4376;DHT22;2202;50.866;12.750;2023-12-20T00:13:23;3.70;99.20
4376;DHT22;2202;50.866;12.750;2023-12-20T00:15:50;3.70;99.10
4376;DHT22;2202;50.866;12.750;2023-12-20T00:18:17;3.70;99.20
4376;DHT22;2202;50.866;12.750;2023-12-20T00:20:44;3.70;99.10
4376;DHT22;2202;50.866;12.750;2023-12-20T00:23:11;3.70;99.20
4376;DHT22;2202;50.866;12.750;2023-12-20T00:25:39;3.70;99.10
4376;DHT22;2202;50.866;12.750;2023-12-20T00:28:06;3.60;99.10
4376;DHT22;2202;50.866;12.750;2023-12-20T00:30:33;3.70;99.10
4376;DHT22;2202;50.866;12.750;2023-12-20T00:33:00;3.70;99.20
4376;DHT22;2202;50.866;12.750;2023-12-20T00:35:28;3.70;99.00
4376;DHT22;2202;50.866;12.750;2023-12-20T00:37:55;3.70;98.90
4376;DHT22;2202;50.866;12.750;2023-12-20T00:40:21;3.80;99.00
4376;DHT22;2202;50.866;12.750;2023-12-20T00:42:50;3.80;98.90
4376;DHT22;2202;50.866;12.750;2023-12-20T00:45:17;3.70;98.70
4376;DHT22;2202;50.866;12.750;2023-12-20T00:47:44;3.70;98.80
4376;DHT22;2202;50.866;12.750;2023-12-20T00:50:11;3.60;98.80
4376;DHT22;2202;50.866;12.750;2023-12-20T00:52:38;3.60;98.90
4376;DHT22;2202;50.866;12.750;2023-12-20T00:55:05;3.60;99.10
4376;DHT22;2202;50.866;12.750;2023-12-20T00:57:33;3.60;99.10
4376;DHT22;2202;50.866;12.750;2023-12-20T01:00:02;3.70;99.10
4376;DHT22;2202;50.866;12.750;2023-12-20T01:02:29;3.60;98.80
4376;DHT22;2202;50.866;12.750;2023-12-20T01:04:56;3.60;99.00
4376;DHT22;2202;50.866;12.750;2023-12-20T01:07:23;3.60;99.00
4376;DHT22;2202;50.866;12.750;2023-12-20T01:09:50;3.60;99.10
4376;DHT22;2202;50.866;12.750;2023-12-20T01:12:17;3.50;99.20
4376;DHT22;2202;50.866;12.750;2023-12-20T01:14:45;3.60;99.20
4376;DHT22;2202;50.866;12.750;2023-12-20T01:17:14;3.50;99.10
4376;DHT22;2202;50.866;12.750;2023-12-20T01:19:40;3.50;99.20
4376;DHT22;2202;50.866;12.750;2023-12-20T01:22:07;3.50;99.20
4376;DHT22;2202;50.866;12.750;2023-12-20T01:24:34;3.50;99.30
4376;DHT22;2202;50.866;12.750;2023-12-20T01:27:01;3.50;99.20
4376;DHT22;2202;50.866;12.750;2023-12-20T01:29:28;3.40;99.40
4376;DHT22;2202;50.866;12.750;2023-12-20T01:31:55;3.40;99.60
4376;DHT22;2202;50.866;12.750;2023-12-20T01:34:23;3.50;99.40
4376;DHT22;2202;50.866;12.750;2023-12-20T01:36:50;3.40;99.30
4376;DHT22;2202;50.866;12.750;2023-12-20T01:39:17;3.30;99.60
4376;DHT22;2202;50.866;12.750;2023-12-20T01:41:44;3.30;99.50
4376;DHT22;2202;50.866;12.750;2023-12-20T01:44:11;3.30;99.70
4376;DHT22;2202;50.866;12.750;2023-12-20T01:46:38;3.40;99.60
4376;DHT22;2202;50.866;12.750;2023-12-20T01:49:05;3.30;99.70
4376;DHT22;2202;50.866;12.750;2023-12-20T01:51:34;3.30;99.60
4376;DHT22;2202;50.866;12.750;2023-12-20T01:54:01;3.40;99.60
4376;DHT22;2202;50.866;12.750;2023-12-20T01:56:29;3.40;99.50
4376;DHT22;2202;50.866;12.750;2023-12-20T01:58:57;3.40;99.30
4376;DHT22;2202;50.866;12.750;2023-12-20T02:01:24;3.40;99.50
4376;DHT22;2202;50.866;12.750;2023-12-20T02:03:54;3.30;99.40
4376;DHT22;2202;50.866;12.750;2023-12-20T02:06:22;3.30;99.40
4376;DHT22;2202;50.866;12.750;2023-12-20T02:08:51;3.30;99.40
4376;DHT22;2202;50.866;12.750;2023-12-20T02:11:18;3.30;99.40
4376;DHT22;2202;50.866;12.750;2023-12-20T02:13:45;3.30;99.40
4376;DHT22;2202;50.866;12.750;2023-12-20T02:16:12;3.20;99.50
4376;DHT22;2202;50.866;12.750;2023-12-20T02:18:39;3.20;99.50
4376;DHT22;2202;50.866;12.750;2023-12-20T02:21:06;3.20;99.60
4376;DHT22;2202;50.866;12.750;2023-12-20T02:23:34;3.20;99.60
4376;DHT22;2202;50.866;12.750;2023-12-20T02:26:01;3.30;99.60
4376;DHT22;2202;50.866;12.750;2023-12-20T02:28:29;3.20;99.50
4376;DHT22;2202;50.866;12.750;2023-12-20T02:30:56;3.20;99.60
4376;DHT22;2202;50.866;12.750;2023-12-20T02:33:23;3.20;99.60
4376;DHT22;2202;50.866;12.750;2023-12-20T02:35:50;3.20;99.50
4376;DHT22;2202;50.866;12.750;2023-12-20T02:38:18;3.30;99.60
4376;DHT22;2202;50.866;12.750;2023-12-20T02:40:46;3.30;99.50
4376;DHT22;2202;50.866;12.750;2023-12-20T02:43:13;3.30;99.50
4376;DHT22;2202;50.866;12.750;2023-12-20T02:45:40;3.30;99.30
4376;DHT22;2202;50.866;12.750;2023-12-20T02:48:07;3.20;99.30
4376;DHT22;2202;50.866;12.750;2023-12-20T02:50:34;3.30;99.40
4376;DHT22;2202;50.866;12.750;2023-12-20T02:53:01;3.20;99.50
4376;DHT22;2202;50.866;12.750;2023-12-20T02:55:28;3.30;99.50
4376;DHT22;2202;50.866;12.750;2023-12-20T02:57:56;3.30;99.40
4376;DHT22;2202;50.866;12.750;2023-12-20T03:00:23;3.20;99.40
4376;DHT22;2202;50.866;12.750;2023-12-20T03:02:50;3.20;99.50
4376;DHT22;2202;50.866;12.750;2023-12-20T03:05:17;3.20;99.60
4376;DHT22;2202;50.866;12.750;2023-12-20T03:07:43;3.20;99.50
4376;DHT22;2202;50.866;12.750;2023-12-20T03:10:11;3.20;99.70
4376;DHT22;2202;50.866;12.750;2023-12-20T03:12:38;3.20;99.60
4376;DHT22;2202;50.866;12.750;2023-12-20T03:15:08;3.10;99.90
4376;DHT22;2202;50.866;12.750;2023-12-20T03:17:35;3.20;99.90
4376;DHT22;2202;50.866;12.750;2023-12-20T03:20:02;3.20;99.80
4376;DHT22;2202;50.866;12.750;2023-12-20T03:22:29;3.20;99.80
4376;DHT22;2202;50.866;12.750;2023-12-20T03:24:56;3.20;99.80
4376;DHT22;2202;50.866;12.750;2023-12-20T03:27:23;3.30;99.60
4376;DHT22;2202;50.866;12.750;2023-12-20T03:29:50;3.20;99.50
4376;DHT22;2202;50.866;12.750;2023-12-20T03:32:18;3.20;99.80
4376;DHT22;2202;50.866;12.750;2023-12-20T03:34:45;3.10;99.90
4376;DHT22;2202;50.866;12.750;2023-12-20T03:37:11;3.20;99.90
4376;DHT22;2202;50.866;12.750;2023-12-20T03:39:38;3.20;99.90
4376;DHT22;2202;50.866;12.750;2023-12-20T03:42:05;3.20;99.90
4376;DHT22;2202;50.866;12.750;2023-12-20T03:44:32;3.20;99.90
4376;DHT22;2202;50.866;12.750;2023-12-20T03:46:59;3.20;99.90
4376;DHT22;2202;50.866;12.750;2023-12-20T03:49:27;3.20;99.90
4376;DHT22;2202;50.866;12.750;2023-12-20T03:51:54;3.20;99.90
4376;DHT22;2202;50.866;12.750;2023-12-20T03:54:21;3.20;99.90
4376;DHT22;2202;50.866;12.750;2023-12-20T03:56:48;3.20;99.90
4376;DHT22;2202;50.866;12.750;2023-12-20T03:59:16;3.10;99.90
4376;DHT22;2202;50.866;12.750;2023-12-20T04:01:43;3.20;99.90
4376;DHT22;2202;50.866;12.750;2023-12-20T04:04:10;3.30;99.90
4376;DHT22;2202;50.866;12.750;2023-12-20T04:06:38;3.20;99.90
4376;DHT22;2202;50.866;12.750;2023-12-20T04:09:05;3.30;99.90
4376;DHT22;2202;50.866;12.750;2023-12-20T04:11:34;3.20;99.90
4376;DHT22;2202;50.866;12.750;2023-12-20T04:14:01;3.20;99.90
4376;DHT22;2202;50.866;12.750;2023-12-20T04:16:28;3.20;99.90
4376;DHT22;2202;50.866;12.750;2023-12-20T04:18:55;3.30;99.90
4376;DHT22;2202;50.866;12.750;2023-12-20T04:21:22;3.30;99.90
4376;DHT22;2202;50.866;12.750;2023-12-20T04:23:50;3.30;99.90
4376;DHT22;2202;50.866;12.750;2023-12-20T04:26:17;3.40;99.90
4376;DHT22;2202;50.866;12.750;2023-12-20T04:28:44;3.40;99.90
4376;DHT22;2202;50.866;12.750;2023-12-20T04:31:11;3.40;99.70
4376;DHT22;2202;50.866;12.750;2023-12-20T04:33:37;3.40;99.80
4376;DHT22;2202;50.866;12.750;2023-12-20T04:36:05;3.40;99.90
4376;DHT22;2202;50.866;12.750;2023-12-20T04:38:32;3.40;99.90
4376;DHT22;2202;50.866;12.750;2023-12-20T04:41:00;3.40;99.80
4376;DHT22;2202;50.866;12.750;2023-12-20T04:43:27;3.40;99.80
4376;DHT22;2202;50.866;12.750;2023-12-20T04:45:55;3.40;99.80
4376;DHT22;2202;50.866;12.750;2023-12-20T04:48:22;3.40;99.90
4376;DHT22;2202;50.866;12.750;2023-12-20T04:50:49;3.40;99.80
4376;DHT22;2202;50.866;12.750;2023-12-20T04:53:15;3.40;99.80
4376;DHT22;2202;50.866;12.750;2023-12-20T04:55:43;3.40;99.80
4376;DHT22;2202;50.866;12.750;2023-12-20T04:58:11;3.40;99.90
4376;DHT22;2202;50.866;12.750;2023-12-20T05:00:38;3.30;99.90
4376;DHT22;2202;50.866;12.750;2023-12-20T05:03:05;3.30;99.90
4376;DHT22;2202;50.866;12.750;2023-12-20T05:05:31;3.30;99.90
4376;DHT22;2202;50.866;12.750;2023-12-20T05:07:58;3.30;99.90
4376;DHT22;2202;50.866;12.750;2023-12-20T05:10:25;3.30;99.90
4376;DHT22;2202;50.866;12.750;2023-12-20T05:12:53;3.30;99.90
4376;DHT22;2202;50.866;12.750;2023-12-20T05:15:21;3.30;99.90
4376;DHT22;2202;50.866;12.750;2023-12-20T05:17:48;3.30;99.90
4376;DHT22;2202;50.866;12.750;2023-12-20T05:20:15;3.40;99.90
4376;DHT22;2202;50.866;12.750;2023-12-20T05:22:42;3.30;99.90
4376;DHT22;2202;50.866;12.750;2023-12-20T05:25:10;3.30;99.90
4376;DHT22;2202;50.866;12.750;2023-12-20T05:27:37;3.30;99.90
4376;DHT22;2202;50.866;12.750;2023-12-20T05:30:04;3.40;99.90
4376;DHT22;2202;50.866;12.750;2023-12-20T05:32:33;3.40;99.90
4376;DHT22;2202;50.866;12.750;2023-12-20T05:35:00;3.30;99.90
4376;DHT22;2202;50.866;12.750;2023-12-20T05:37:27;3.40;99.90
4376;DHT22;2202;50.866;12.750;2023-12-20T05:39:54;3.30;99.90
4376;DHT22;2202;50.866;12.750;2023-12-20T05:42:21;3.30;99.90
4376;DHT22;2202;50.866;12.750;2023-12-20T05:44:48;3.30;99.90
4376;DHT22;2202;50.866;12.750;2023-12-20T05:47:15;3.30;99.90
4376;DHT22;2202;50.866;12.750;2023-12-20T05:49:44;3.40;99.90
4376;DHT22;2202;50.866;12.750;2023-12-20T05:52:11;3.40;99.90
4376;DHT22;2202;50.866;12.750;2023-12-20T05:54:38;3.40;99.90
4376;DHT22;2202;50.866;12.750;2023-12-20T05:57:05;3.40;99.90
4376;DHT22;2202;50.866;12.750;2023-12-20T05:59:32;3.40;99.90
4376;DHT22;2202;50.866;12.750;2023-12-20T06:01:59;3.40;99.90
4376;DHT22;2202;50.866;12.750;2023-12-20T06:04:26;3.40;99.90
4376;DHT22;2202;50.866;12.750;2023-12-20T06:06:54;3.50;99.90
4376;DHT22;2202;50.866;12.750;2023-12-20T06:09:21;3.50;99.90
4376;DHT22;2202;50.866;12.750;2023-12-20T06:11:49;3.50;99.90
4376;DHT22;2202;50.866;12.750;2023-12-20T06:14:16;3.50;99.90
4376;DHT22;2202;50.866;12.750;2023-12-20T06:16:43;3.50;99.90
4376;DHT22;2202;50.866;12.750;2023-12-20T06:19:10;3.50;99.90
4376;DHT22;2202;50.866;12.750;2023-12-20T06:21:37;3.60;99.90
4376;DHT22;2202;50.866;12.750;2023-12-20T06:24:06;3.60;99.90
4376;DHT22;2202;50.866;12.750;2023-12-20T06:26:33;3.70;99.90
4376;DHT22;2202;50.866;12.750;2023-12-20T06:28:59;3.70;99.90
4376;DHT22;2202;50.866;12.750;2023-12-20T06:31:26;3.60;99.90
4376;DHT22;2202;50.866;12.750;2023-12-20T06:33:53;3.70;99.90
4376;DHT22;2202;50.866;12.750;2023-12-20T06:36:23;3.60;99.90
4376;DHT22;2202;50.866;12.750;2023-12-20T06:38:50;3.60;99.90
4376;DHT22;2202;50.866;12.750;2023-12-20T06:41:18;3.60;99.90
4376;DHT22;2202;50.866;12.750;2023-12-20T06:43:45;3.60;99.90
4376;DHT22;2202;50.866;12.750;2023-12-20T06:46:13;3.50;99.90
4376;DHT22;2202;50.866;12.750;2023-12-20T06:48:38;3.60;99.90
4376;DHT22;2202;50.866;12.750;2023-12-20T06:51:06;3.60;99.90
4376;DHT22;2202;50.866;12.750;2023-12-20T06:53:33;3.60;99.90
4376;DHT22;2202;50.866;12.750;2023-12-20T06:56:00;3.60;99.90
4376;DHT22;2202;50.866;12.750;2023-12-20T06:58:28;3.60;99.90
4376;DHT22;2202;50.866;12.750;2023-12-20T07:00:55;3.60;99.90
4376;DHT22;2202;50.866;12.750;2023-12-20T07:03:21;3.60;99.90
4376;DHT22;2202;50.866;12.750;2023-12-20T07:05:48;3.70;99.90
4376;DHT22;2202;50.866;12.750;2023-12-20T07:08:15;3.60;99.90
4376;DHT22;2202;50.866;12.750;2023-12-20T07:10:42;3.60;99.90
4376;DHT22;2202;50.866;12.750;2023-12-20T07:13:09;3.60;99.90
4376;DHT22;2202;50.866;12.750;2023-12-20T07:15:37;3.60;99.90
4376;DHT22;2202;50.866;12.750;2023-12-20T07:18:05;3.70;99.90
4376;DHT22;2202;50.866;12.750;2023-12-20T07:20:32;3.60;99.60
4376;DHT22;2202;50.866;12.750;2023-12-20T07:22:59;3.60;99.80
4376;DHT22;2202;50.866;12.750;2023-12-20T07:25:26;3.60;99.60
4376;DHT22;2202;50.866;12.750;2023-12-20T07:27:53;3.60;99.80
4376;DHT22;2202;50.866;12.750;2023-12-20T07:30:20;3.60;99.50
4376;DHT22;2202;50.866;12.750;2023-12-20T07:32:48;3.60;99.80
4376;DHT22;2202;50.866;12.750;2023-12-20T07:35:15;3.60;99.80
4376;DHT22;2202;50.866;12.750;2023-12-20T07:37:42;3.70;99.40
4376;DHT22;2202;50.866;12.750;2023-12-20T07:40:10;3.70;99.30
4376;DHT22;2202;50.866;12.750;2023-12-20T07:42:37;3.70;99.20
4376;DHT22;2202;50.866;12.750;2023-12-20T07:45:04;3.70;99.20
4376;DHT22;2202;50.866;12.750;2023-12-20T07:47:31;3.70;99.30
4376;DHT22;2202;50.866;12.750;2023-12-20T07:50:00;3.70;99.30
4376;DHT22;2202;50.866;12.750;2023-12-20T07:52:27;3.60;99.30
4376;DHT22;2202;50.866;12.750;2023-12-20T07:54:54;3.50;99.50
4376;DHT22;2202;50.866;12.750;2023-12-20T07:57:21;3.60;99.60
4376;DHT22;2202;50.866;12.750;2023-12-20T07:59:48;3.60;99.60
4376;DHT22;2202;50.866;12.750;2023-12-20T08:02:15;3.60;99.80
4376;DHT22;2202;50.866;12.750;2023-12-20T08:04:42;3.70;99.90
4376;DHT22;2202;50.866;12.750;2023-12-20T08:07:10;3.80;99.90
4376;DHT22;2202;50.866;12.750;2023-12-20T08:09:37;3.80;99.90
4376;DHT22;2202;50.866;12.750;2023-12-20T08:12:04;3.80;99.90
4376;DHT22;2202;50.866;12.750;2023-12-20T08:14:31;3.80;99.90
4376;DHT22;2202;50.866;12.750;2023-12-20T08:16:58;3.80;99.90
4376;DHT22;2202;50.866;12.750;2023-12-20T08:19:25;3.90;99.90
4376;DHT22;2202;50.866;12.750;2023-12-20T08:21:51;3.90;99.90
4376;DHT22;2202;50.866;12.750;2023-12-20T08:24:20;3.80;99.90
4376;DHT22;2202;50.866;12.750;2023-12-20T08:26:47;3.80;99.90
4376;DHT22;2202;50.866;12.750;2023-12-20T08:29:13;3.80;99.90
4376;DHT22;2202;50.866;12.750;2023-12-20T08:31:40;3.70;99.90
4376;DHT22;2202;50.866;12.750;2023-12-20T08:34:07;3.80;99.90
4376;DHT22;2202;50.866;12.750;2023-12-20T08:36:34;3.80;99.90
4376;DHT22;2202;50.866;12.750;2023-12-20T08:39:01;3.80;99.90
4376;DHT22;2202;50.866;12.750;2023-12-20T08:41:33;3.80;99.90
4376;DHT22;2202;50.866;12.750;2023-12-20T08:44:00;3.80;99.90
4376;DHT22;2202;50.866;12.750;2023-12-20T08:46:26;3.80;99.90
4376;DHT22;2202;50.866;12.750;2023-12-20T08:48:53;3.80;99.80
4376;DHT22;2202;50.866;12.750;2023-12-20T08:51:20;3.90;99.50
4376;DHT22;2202;50.866;12.750;2023-12-20T08:53:48;4.00;99.20
4376;DHT22;2202;50.866;12.750;2023-12-20T08:56:15;4.10;98.40
4376;DHT22;2202;50.866;12.750;2023-12-20T08:58:45;4.20;98.00
4376;DHT22;2202;50.866;12.750;2023-12-20T09:01:12;4.20;97.80
4376;DHT22;2202;50.866;12.750;2023-12-20T09:03:39;4.30;97.50
4376;DHT22;2202;50.866;12.750;2023-12-20T09:06:06;4.40;97.40
4376;DHT22;2202;50.866;12.750;2023-12-20T09:08:33;4.40;96.50
4376;DHT22;2202;50.866;12.750;2023-12-20T09:11:00;4.40;96.30
4376;DHT22;2202;50.866;12.750;2023-12-20T09:13:27;4.40;96.00
4376;DHT22;2202;50.866;12.750;2023-12-20T09:15:56;4.30;95.90
4376;DHT22;2202;50.866;12.750;2023-12-20T09:18:23;4.20;95.80
4376;DHT22;2202;50.866;12.750;2023-12-20T09:20:50;4.20;96.10
4376;DHT22;2202;50.866;12.750;2023-12-20T09:23:17;4.10;96.20
4376;DHT22;2202;50.866;12.750;2023-12-20T09:25:44;4.10;96.00
4376;DHT22;2202;50.866;12.750;2023-12-20T09:28:11;4.20;96.00
4376;DHT22;2202;50.866;12.750;2023-12-20T09:30:37;4.20;95.90
4376;DHT22;2202;50.866;12.750;2023-12-20T09:33:07;4.20;95.70
4376;DHT22;2202;50.866;12.750;2023-12-20T09:35:33;4.20;95.90
4376;DHT22;2202;50.866;12.750;2023-12-20T09:38:00;4.20;96.00
4376;DHT22;2202;50.866;12.750;2023-12-20T09:40:28;4.30;95.90
4376;DHT22;2202;50.866;12.750;2023-12-20T09:42:57;4.40;95.60
4376;DHT22;2202;50.866;12.750;2023-12-20T09:45:24;4.40;95.30
4376;DHT22;2202;50.866;12.750;2023-12-20T09:47:52;4.40;95.40
4376;DHT22;2202;50.866;12.750;2023-12-20T09:50:22;4.40;94.70
4376;DHT22;2202;50.866;12.750;2023-12-20T09:52:50;4.40;94.40
4376;DHT22;2202;50.866;12.750;2023-12-20T09:55:18;4.40;94.00
4376;DHT22;2202;50.866;12.750;2023-12-20T09:57:45;4.40;94.00
4376;DHT22;2202;50.866;12.750;2023-12-20T10:00:13;4.40;93.90
4376;DHT22;2202;50.866;12.750;2023-12-20T10:02:45;4.40;93.90
4376;DHT22;2202;50.866;12.750;2023-12-20T10:05:16;4.40;93.70
4376;DHT22;2202;50.866;12.750;2023-12-20T10:07:46;4.40;93.40
4376;DHT22;2202;50.866;12.750;2023-12-20T10:10:14;4.40;93.60
4376;DHT22;2202;50.866;12.750;2023-12-20T10:12:42;4.40;93.40
4376;DHT22;2202;50.866;12.750;2023-12-20T10:15:27;4.50;93.30
4376;DHT22;2202;50.866;12.750;2023-12-20T10:17:54;4.50;93.50
4376;DHT22;2202;50.866;12.750;2023-12-20T10:20:21;4.50;93.20
4376;DHT22;2202;50.866;12.750;2023-12-20T10:22:49;4.60;93.30
4376;DHT22;2202;50.866;12.750;2023-12-20T10:25:19;4.60;93.30
4376;DHT22;2202;50.866;12.750;2023-12-20T10:27:46;4.80;93.20
4376;DHT22;2202;50.866;12.750;2023-12-20T10:30:13;4.80;92.60
4376;DHT22;2202;50.866;12.750;2023-12-20T10:32:40;4.70;91.50
4376;DHT22;2202;50.866;12.750;2023-12-20T10:35:08;4.70;91.90
4376;DHT22;2202;50.866;12.750;2023-12-20T10:37:36;4.60;91.80
4376;DHT22;2202;50.866;12.750;2023-12-20T10:40:06;4.60;92.00
4376;DHT22;2202;50.866;12.750;2023-12-20T10:42:34;4.70;91.70
4376;DHT22;2202;50.866;12.750;2023-12-20T10:45:03;4.70;91.30
4376;DHT22;2202;50.866;12.750;2023-12-20T10:47:30;4.70;91.50
4376;DHT22;2202;50.866;12.750;2023-12-20T10:49:59;4.80;91.40
4376;DHT22;2202;50.866;12.750;2023-12-20T10:52:28;5.00;91.30
4376;DHT22;2202;50.866;12.750;2023-12-20T10:54:56;5.00;90.60
4376;DHT22;2202;50.866;12.750;2023-12-20T10:57:27;4.90;90.10
4376;DHT22;2202;50.866;12.750;2023-12-20T10:59:55;4.80;89.80
4376;DHT22;2202;50.866;12.750;2023-12-20T11:02:22;4.70;90.80
4376;DHT22;2202;50.866;12.750;2023-12-20T11:04:55;4.70;90.60
4376;DHT22;2202;50.866;12.750;2023-12-20T11:07:25;4.70;90.90
4376;DHT22;2202;50.866;12.750;2023-12-20T11:09:58;4.80;90.70
4376;DHT22;2202;50.866;12.750;2023-12-20T11:12:37;4.80;90.80
4376;DHT22;2202;50.866;12.750;2023-12-20T11:15:06;4.90;90.70
4376;DHT22;2202;50.866;12.750;2023-12-20T11:17:34;5.00;90.20
4376;DHT22;2202;50.866;12.750;2023-12-20T11:20:05;4.90;90.30
4376;DHT22;2202;50.866;12.750;2023-12-20T11:22:33;4.90;90.60
4376;DHT22;2202;50.866;12.750;2023-12-20T11:25:04;4.80;90.50
4376;DHT22;2202;50.866;12.750;2023-12-20T11:27:33;4.80;90.90
4376;DHT22;2202;50.866;12.750;2023-12-20T11:30:03;4.80;91.00
4376;DHT22;2202;50.866;12.750;2023-12-20T11:32:33;4.80;91.00
4376;DHT22;2202;50.866;12.750;2023-12-20T11:35:01;4.90;90.90
4376;DHT22;2202;50.866;12.750;2023-12-20T11:37:42;4.90;90.80
4376;DHT22;2202;50.866;12.750;2023-12-20T11:40:13;4.90;90.10
4376;DHT22;2202;50.866;12.750;2023-12-20T11:42:42;4.90;89.80
4376;DHT22;2202;50.866;12.750;2023-12-20T11:45:10;4.90;90.30
4376;DHT22;2202;50.866;12.750;2023-12-20T11:47:40;4.80;90.30
4376;DHT22;2202;50.866;12.750;2023-12-20T11:50:07;4.80;90.00
4376;DHT22;2202;50.866;12.750;2023-12-20T11:52:35;4.80;90.00
4376;DHT22;2202;50.866;12.750;2023-12-20T11:55:02;4.90;90.40
4376;DHT22;2202;50.866;12.750;2023-12-20T11:57:29;4.90;90.30
4376;DHT22;2202;50.866;12.750;2023-12-20T11:59:57;5.00;88.40
4376;DHT22;2202;50.866;12.750;2023-12-20T12:02:24;5.20;87.80
4376;DHT22;2202;50.866;12.750;2023-12-20T12:04:51;5.30;86.00
4376;DHT22;2202;50.866;12.750;2023-12-20T12:07:18;5.50;86.40
4376;DHT22;2202;50.866;12.750;2023-12-20T12:09:45;5.80;86.40
4376;DHT22;2202;50.866;12.750;2023-12-20T12:12:13;5.70;83.60
4376;DHT22;2202;50.866;12.750;2023-12-20T12:14:40;5.60;83.40
4376;DHT22;2202;50.866;12.750;2023-12-20T12:17:11;5.60;83.00
4376;DHT22;2202;50.866;12.750;2023-12-20T12:19:39;5.60;82.80
4376;DHT22;2202;50.866;12.750;2023-12-20T12:22:06;5.70;82.40
4376;DHT22;2202;50.866;12.750;2023-12-20T12:24:35;5.70;81.60
4376;DHT22;2202;50.866;12.750;2023-12-20T12:27:05;5.70;81.20
4376;DHT22;2202;50.866;12.750;2023-12-20T12:29:32;5.70;80.80
4376;DHT22;2202;50.866;12.750;2023-12-20T12:31:59;5.60;80.80
4376;DHT22;2202;50.866;12.750;2023-12-20T12:34:28;5.60;80.80
4376;DHT22;2202;50.866;12.750;2023-12-20T12:36:56;5.60;80.60
4376;DHT22;2202;50.866;12.750;2023-12-20T12:39:24;5.60;78.40
4376;DHT22;2202;50.866;12.750;2023-12-20T12:41:51;5.70;79.80
4376;DHT22;2202;50.866;12.750;2023-12-20T12:44:18;5.70;79.80
4376;DHT22;2202;50.866;12.750;2023-12-20T12:46:46;5.70;80.00
4376;DHT22;2202;50.866;12.750;2023-12-20T12:49:15;5.70;80.40
4376;DHT22;2202;50.866;12.750;2023-12-20T12:51:44;5.70;80.80
4376;DHT22;2202;50.866;12.750;2023-12-20T12:56:39;5.70;79.00
4376;DHT22;2202;50.866;12.750;2023-12-20T12:59:06;5.70;79.20
4376;DHT22;2202;50.866;12.750;2023-12-20T13:01:33;5.70;79.80
4376;DHT22;2202;50.866;12.750;2023-12-20T13:04:00;5.70;79.80
4376;DHT22;2202;50.866;12.750;2023-12-20T13:06:28;5.80;80.80
4376;DHT22;2202;50.866;12.750;2023-12-20T13:08:57;5.80;80.40
4376;DHT22;2202;50.866;12.750;2023-12-20T13:11:23;5.80;78.40
4376;DHT22;2202;50.866;12.750;2023-12-20T13:13:50;5.80;79.40
4376;DHT22;2202;50.866;12.750;2023-12-20T13:16:17;5.70;81.20
4376;DHT22;2202;50.866;12.750;2023-12-20T13:18:44;5.70;81.40
4376;DHT22;2202;50.866;12.750;2023-12-20T13:21:13;5.80;81.20
4376;DHT22;2202;50.866;12.750;2023-12-20T13:23:40;5.80;79.80
4376;DHT22;2202;50.866;12.750;2023-12-20T13:26:08;5.70;79.40
4376;DHT22;2202;50.866;12.750;2023-12-20T13:28:35;5.60;79.60
4376;DHT22;2202;50.866;12.750;2023-12-20T13:31:02;5.60;80.00
4376;DHT22;2202;50.866;12.750;2023-12-20T13:33:29;5.60;80.40
4376;DHT22;2202;50.866;12.750;2023-12-20T13:35:56;5.50;80.60
4376;DHT22;2202;50.866;12.750;2023-12-20T13:38:24;5.50;81.00
4376;DHT22;2202;50.866;12.750;2023-12-20T13:40:50;5.40;81.60
4376;DHT22;2202;50.866;12.750;2023-12-20T13:43:19;5.30;82.00
4376;DHT22;2202;50.866;12.750;2023-12-20T13:45:47;5.20;82.80
4376;DHT22;2202;50.866;12.750;2023-12-20T13:48:14;5.20;82.60
4376;DHT22;2202;50.866;12.750;2023-12-20T13:50:41;5.10;83.40
4376;DHT22;2202;50.866;12.750;2023-12-20T13:53:08;5.10;83.20
4376;DHT22;2202;50.866;12.750;2023-12-20T13:55:35;5.10;83.20
4376;DHT22;2202;50.866;12.750;2023-12-20T13:58:02;5.00;83.80
4376;DHT22;2202;50.866;12.750;2023-12-20T14:00:30;5.00;83.60
4376;DHT22;2202;50.866;12.750;2023-12-20T14:02:57;5.10;83.60
4376;DHT22;2202;50.866;12.750;2023-12-20T14:05:24;5.00;84.00
4376;DHT22;2202;50.866;12.750;2023-12-20T14:07:52;5.00;84.40
4376;DHT22;2202;50.866;12.750;2023-12-20T14:10:19;5.10;84.40
4376;DHT22;2202;50.866;12.750;2023-12-20T14:12:46;5.10;84.40
4376;DHT22;2202;50.866;12.750;2023-12-20T14:15:13;5.00;84.80
4376;DHT22;2202;50.866;12.750;2023-12-20T14:17:41;5.10;85.20
4376;DHT22;2202;50.866;12.750;2023-12-20T14:20:09;5.00;84.60
4376;DHT22;2202;50.866;12.750;2023-12-20T14:22:38;5.00;84.80
4376;DHT22;2202;50.866;12.750;2023-12-20T14:25:10;5.00;84.60
4376;DHT22;2202;50.866;12.750;2023-12-20T14:27:38;5.00;84.20
4376;DHT22;2202;50.866;12.750;2023-12-20T14:30:07;5.00;84.40
4376;DHT22;2202;50.866;12.750;2023-12-20T14:32:35;4.90;84.60
4376;DHT22;2202;50.866;12.750;2023-12-20T14:35:06;4.80;85.00
4376;DHT22;2202;50.866;12.750;2023-12-20T14:37:34;4.80;85.60
4376;DHT22;2202;50.866;12.750;2023-12-20T14:40:01;4.80;85.60
4376;DHT22;2202;50.866;12.750;2023-12-20T14:42:28;4.80;86.00
4376;DHT22;2202;50.866;12.750;2023-12-20T14:44:55;4.80;86.20
4376;DHT22;2202;50.866;12.750;2023-12-20T14:47:21;4.70;86.80
4376;DHT22;2202;50.866;12.750;2023-12-20T14:49:50;4.70;87.40
4376;DHT22;2202;50.866;12.750;2023-12-20T14:52:19;4.60;87.60
4376;DHT22;2202;50.866;12.750;2023-12-20T14:54:46;4.60;87.80
4376;DHT22;2202;50.866;12.750;2023-12-20T14:57:13;4.50;88.20
4376;DHT22;2202;50.866;12.750;2023-12-20T14:59:39;4.50;88.60
4376;DHT22;2202;50.866;12.750;2023-12-20T15:02:06;4.50;88.60
4376;DHT22;2202;50.866;12.750;2023-12-20T15:04:33;4.40;89.20
4376;DHT22;2202;50.866;12.750;2023-12-20T15:07:00;4.40;89.40
4376;DHT22;2202;50.866;12.750;2023-12-20T15:09:31;4.40;90.00
4376;DHT22;2202;50.866;12.750;2023-12-20T15:11:58;4.40;90.10
4376;DHT22;2202;50.866;12.750;2023-12-20T15:14:26;4.40;90.00
4376;DHT22;2202;50.866;12.750;2023-12-20T15:16:55;4.40;90.10
4376;DHT22;2202;50.866;12.750;2023-12-20T15:19:22;4.40;90.20
4376;DHT22;2202;50.866;12.750;2023-12-20T15:21:49;4.40;90.10
4376;DHT22;2202;50.866;12.750;2023-12-20T15:24:16;4.40;90.20
4376;DHT22;2202;50.866;12.750;2023-12-20T15:26:46;4.40;90.30
4376;DHT22;2202;50.866;12.750;2023-12-20T15:29:13;4.40;90.40
4376;DHT22;2202;50.866;12.750;2023-12-20T15:31:42;4.40;90.40
4376;DHT22;2202;50.866;12.750;2023-12-20T15:34:10;4.40;90.70
4376;DHT22;2202;50.866;12.750;2023-12-20T15:36:39;4.40;90.80
4376;DHT22;2202;50.866;12.750;2023-12-20T15:39:06;4.40;90.70
4376;DHT22;2202;50.866;12.750;2023-12-20T15:41:34;4.40;90.80
4376;DHT22;2202;50.866;12.750;2023-12-20T15:44:02;4.40;90.90
4376;DHT22;2202;50.866;12.750;2023-12-20T15:46:29;4.30;90.90
4376;DHT22;2202;50.866;12.750;2023-12-20T15:48:56;4.30;91.10
4376;DHT22;2202;50.866;12.750;2023-12-20T15:51:23;4.30;91.10
4376;DHT22;2202;50.866;12.750;2023-12-20T15:53:50;4.30;91.20
4376;DHT22;2202;50.866;12.750;2023-12-20T15:56:17;4.30;91.10
4376;DHT22;2202;50.866;12.750;2023-12-20T15:58:44;4.30;91.20
4376;DHT22;2202;50.866;12.750;2023-12-20T16:01:14;4.20;91.40
4376;DHT22;2202;50.866;12.750;2023-12-20T16:03:42;4.20;91.50
4376;DHT22;2202;50.866;12.750;2023-12-20T16:06:09;4.20;91.20